sensor_id;sensor_type;location;lat;lon;timestamp;temperature;humidity
546;DHT22;259;53.304;9.816;2023-06-14T00:00:31;22.50;58.70
546;DHT22;259;53.304;9.816;2023-06-14T00:02:57;22.40;58.70
546;DHT22;259;53.304;9.816;2023-06-14T00:05:23;22.40;58.70
546;DHT22;259;53.304;9.816;2023-06-14T00:07:49;22.40;58.70
546;DHT22;259;53.304;9.816;2023-06-14T00:10:19;22.40;58.80
546;DHT22;259;53.304;9.816;2023-06-14T00:12:44;22.40;58.80
546;DHT22;259;53.304;9.816;2023-06-14T00:15:10;22.30;58.70
546;DHT22;259;53.304;9.816;2023-06-14T00:17:36;22.30;58.80
546;DHT22;259;53.304;9.816;2023-06-14T00:20:05;22.30;58.80
546;DHT22;259;53.304;9.816;2023-06-14T00:22:33;22.30;58.80
546;DHT22;259;53.304;9.816;2023-06-14T00:24:59;22.30;58.90
546;DHT22;259;53.304;9.816;2023-06-14T00:27:25;22.30;58.90
546;DHT22;259;53.304;9.816;2023-06-14T00:29:51;22.20;58.90
546;DHT22;259;53.304;9.816;2023-06-14T00:32:18;22.20;58.90
546;DHT22;259;53.304;9.816;2023-06-14T00:34:44;22.20;58.90
546;DHT22;259;53.304;9.816;2023-06-14T00:37:09;22.20;59.00
546;DHT22;259;53.304;9.816;2023-06-14T00:39:35;22.20;59.00
546;DHT22;259;53.304;9.816;2023-06-14T00:42:01;22.20;59.00
546;DHT22;259;53.304;9.816;2023-06-14T00:44:27;22.20;59.00
546;DHT22;259;53.304;9.816;2023-06-14T00:46:52;22.10;59.00
546;DHT22;259;53.304;9.816;2023-06-14T00:49:19;22.10;59.00
546;DHT22;259;53.304;9.816;2023-06-14T00:51:45;22.10;59.00
546;DHT22;259;53.304;9.816;2023-06-14T00:54:11;22.10;59.10
546;DHT22;259;53.304;9.816;2023-06-14T00:56:37;22.10;59.10
546;DHT22;259;53.304;9.816;2023-06-14T00:59:03;22.10;59.10
546;DHT22;259;53.304;9.816;2023-06-14T01:01:30;22.00;59.10
546;DHT22;259;53.304;9.816;2023-06-14T01:03:59;22.00;59.10
546;DHT22;259;53.304;9.816;2023-06-14T01:06:42;22.00;59.10
546;DHT22;259;53.304;9.816;2023-06-14T01:09:18;22.00;59.10
546;DHT22;259;53.304;9.816;2023-06-14T01:11:52;22.00;59.10
546;DHT22;259;53.304;9.816;2023-06-14T01:14:25;21.90;59.10
546;DHT22;259;53.304;9.816;2023-06-14T01:16:53;21.90;59.10
546;DHT22;259;53.304;9.816;2023-06-14T01:19:20;21.90;59.20
546;DHT22;259;53.304;9.816;2023-06-14T01:21:48;21.90;59.20
546;DHT22;259;53.304;9.816;2023-06-14T01:24:16;21.90;59.20
546;DHT22;259;53.304;9.816;2023-06-14T01:26:45;21.80;59.60
546;DHT22;259;53.304;9.816;2023-06-14T01:29:12;21.80;59.20
546;DHT22;259;53.304;9.816;2023-06-14T01:31:42;21.80;59.20
546;DHT22;259;53.304;9.816;2023-06-14T01:34:09;21.80;59.20
546;DHT22;259;53.304;9.816;2023-06-14T01:36:36;21.80;59.20
546;DHT22;259;53.304;9.816;2023-06-14T01:39:07;21.70;59.20
546;DHT22;259;53.304;9.816;2023-06-14T01:41:34;21.70;59.20
546;DHT22;259;53.304;9.816;2023-06-14T01:44:01;21.70;59.30
546;DHT22;259;53.304;9.816;2023-06-14T01:46:27;21.70;59.30
546;DHT22;259;53.304;9.816;2023-06-14T01:48:53;21.70;59.30
546;DHT22;259;53.304;9.816;2023-06-14T01:51:18;21.70;59.40
546;DHT22;259;53.304;9.816;2023-06-14T01:53:44;21.70;59.40
546;DHT22;259;53.304;9.816;2023-06-14T01:56:10;21.70;59.40
546;DHT22;259;53.304;9.816;2023-06-14T01:58:36;21.60;59.30
546;DHT22;259;53.304;9.816;2023-06-14T02:01:02;21.60;59.30
546;DHT22;259;53.304;9.816;2023-06-14T02:03:27;21.60;59.40
546;DHT22;259;53.304;9.816;2023-06-14T02:05:53;21.60;59.40
546;DHT22;259;53.304;9.816;2023-06-14T02:08:20;21.60;59.40
546;DHT22;259;53.304;9.816;2023-06-14T02:10:46;21.60;59.50
546;DHT22;259;53.304;9.816;2023-06-14T02:13:12;21.50;59.40
546;DHT22;259;53.304;9.816;2023-06-14T02:15:37;21.50;59.40
546;DHT22;259;53.304;9.816;2023-06-14T02:18:03;21.50;59.50
546;DHT22;259;53.304;9.816;2023-06-14T02:20:29;21.50;59.50
546;DHT22;259;53.304;9.816;2023-06-14T02:22:55;21.50;59.50
546;DHT22;259;53.304;9.816;2023-06-14T02:25:22;21.40;59.40
546;DHT22;259;53.304;9.816;2023-06-14T02:27:47;21.40;59.50
546;DHT22;259;53.304;9.816;2023-06-14T02:30:13;21.40;59.50
546;DHT22;259;53.304;9.816;2023-06-14T02:32:40;21.40;59.50
546;DHT22;259;53.304;9.816;2023-06-14T02:35:08;21.40;59.50
546;DHT22;259;53.304;9.816;2023-06-14T02:37:34;21.30;59.50
546;DHT22;259;53.304;9.816;2023-06-14T02:40:00;21.40;59.60
546;DHT22;259;53.304;9.816;2023-06-14T02:42:26;21.30;59.50
546;DHT22;259;53.304;9.816;2023-06-14T02:44:51;21.30;59.60
546;DHT22;259;53.304;9.816;2023-06-14T02:47:18;21.30;59.60
546;DHT22;259;53.304;9.816;2023-06-14T02:49:44;21.30;59.60
546;DHT22;259;53.304;9.816;2023-06-14T02:52:12;21.20;59.60
546;DHT22;259;53.304;9.816;2023-06-14T02:54:38;21.20;59.60
546;DHT22;259;53.304;9.816;2023-06-14T02:57:04;21.20;59.70
546;DHT22;259;53.304;9.816;2023-06-14T02:59:30;21.20;59.70
546;DHT22;259;53.304;9.816;2023-06-14T03:01:55;21.20;59.70
546;DHT22;259;53.304;9.816;2023-06-14T03:04:21;21.20;59.80
546;DHT22;259;53.304;9.816;2023-06-14T03:06:47;21.10;59.70
546;DHT22;259;53.304;9.816;2023-06-14T03:09:15;21.10;59.70
546;DHT22;259;53.304;9.816;2023-06-14T03:11:41;21.10;59.80
546;DHT22;259;53.304;9.816;2023-06-14T03:14:07;21.10;59.70
546;DHT22;259;53.304;9.816;2023-06-14T03:16:33;21.10;59.90
546;DHT22;259;53.304;9.816;2023-06-14T03:18:59;21.10;59.90
546;DHT22;259;53.304;9.816;2023-06-14T03:21:25;21.10;59.80
546;DHT22;259;53.304;9.816;2023-06-14T03:23:51;21.00;59.80
546;DHT22;259;53.304;9.816;2023-06-14T03:26:18;21.00;59.80
546;DHT22;259;53.304;9.816;2023-06-14T03:28:45;21.00;59.90
546;DHT22;259;53.304;9.816;2023-06-14T03:31:14;21.00;59.90
546;DHT22;259;53.304;9.816;2023-06-14T03:33:40;21.00;59.90
546;DHT22;259;53.304;9.816;2023-06-14T03:36:06;21.00;60.00
546;DHT22;259;53.304;9.816;2023-06-14T03:38:32;20.90;59.90
546;DHT22;259;53.304;9.816;2023-06-14T03:40:58;21.00;60.10
546;DHT22;259;53.304;9.816;2023-06-14T03:43:24;20.90;59.90
546;DHT22;259;53.304;9.816;2023-06-14T03:45:50;20.90;60.00
546;DHT22;259;53.304;9.816;2023-06-14T03:48:16;20.90;60.00
546;DHT22;259;53.304;9.816;2023-06-14T03:50:42;20.80;60.00
546;DHT22;259;53.304;9.816;2023-06-14T03:53:09;20.80;60.00
546;DHT22;259;53.304;9.816;2023-06-14T03:55:35;20.80;60.00
546;DHT22;259;53.304;9.816;2023-06-14T03:58:01;20.80;60.10
546;DHT22;259;53.304;9.816;2023-06-14T04:00:27;20.80;60.20
546;DHT22;259;53.304;9.816;2023-06-14T04:02:53;20.80;60.30
546;DHT22;259;53.304;9.816;2023-06-14T04:05:19;20.80;60.30
546;DHT22;259;53.304;9.816;2023-06-14T04:07:46;20.80;60.30
546;DHT22;259;53.304;9.816;2023-06-14T04:10:15;20.70;60.30
546;DHT22;259;53.304;9.816;2023-06-14T04:12:42;20.70;60.30
546;DHT22;259;53.304;9.816;2023-06-14T04:15:08;20.70;60.40
546;DHT22;259;53.304;9.816;2023-06-14T04:17:34;20.70;60.40
546;DHT22;259;53.304;9.816;2023-06-14T04:20:01;20.70;60.50
546;DHT22;259;53.304;9.816;2023-06-14T04:22:30;20.70;60.50
546;DHT22;259;53.304;9.816;2023-06-14T04:24:57;20.60;60.50
546;DHT22;259;53.304;9.816;2023-06-14T04:27:23;20.60;60.60
546;DHT22;259;53.304;9.816;2023-06-14T04:29:52;20.60;60.60
546;DHT22;259;53.304;9.816;2023-06-14T04:32:28;20.60;60.60
546;DHT22;259;53.304;9.816;2023-06-14T04:34:55;20.60;60.60
546;DHT22;259;53.304;9.816;2023-06-14T04:37:22;20.60;60.70
546;DHT22;259;53.304;9.816;2023-06-14T04:39:48;20.60;60.70
546;DHT22;259;53.304;9.816;2023-06-14T04:42:15;20.60;60.70
546;DHT22;259;53.304;9.816;2023-06-14T04:44:42;20.60;60.90
546;DHT22;259;53.304;9.816;2023-06-14T04:47:09;20.50;60.80
546;DHT22;259;53.304;9.816;2023-06-14T04:49:35;20.50;60.80
546;DHT22;259;53.304;9.816;2023-06-14T04:52:01;20.50;60.90
546;DHT22;259;53.304;9.816;2023-06-14T04:54:27;20.40;60.80
546;DHT22;259;53.304;9.816;2023-06-14T04:56:53;20.50;61.00
546;DHT22;259;53.304;9.816;2023-06-14T04:59:20;20.50;61.00
546;DHT22;259;53.304;9.816;2023-06-14T05:01:49;20.50;61.20
546;DHT22;259;53.304;9.816;2023-06-14T05:04:15;20.50;61.20
546;DHT22;259;53.304;9.816;2023-06-14T05:06:42;20.40;61.20
546;DHT22;259;53.304;9.816;2023-06-14T05:09:14;20.40;61.20
546;DHT22;259;53.304;9.816;2023-06-14T05:11:40;20.40;61.30
546;DHT22;259;53.304;9.816;2023-06-14T05:14:10;20.40;61.30
546;DHT22;259;53.304;9.816;2023-06-14T05:16:38;20.40;61.30
546;DHT22;259;53.304;9.816;2023-06-14T05:19:04;20.40;61.40
546;DHT22;259;53.304;9.816;2023-06-14T05:21:31;20.30;61.40
546;DHT22;259;53.304;9.816;2023-06-14T05:23:59;20.30;61.40
546;DHT22;259;53.304;9.816;2023-06-14T05:26:24;20.30;61.40
546;DHT22;259;53.304;9.816;2023-06-14T05:28:57;20.30;61.50
546;DHT22;259;53.304;9.816;2023-06-14T05:31:26;20.30;61.60
546;DHT22;259;53.304;9.816;2023-06-14T05:33:53;20.30;61.60
546;DHT22;259;53.304;9.816;2023-06-14T05:36:20;20.30;61.70
546;DHT22;259;53.304;9.816;2023-06-14T05:38:49;20.30;61.60
546;DHT22;259;53.304;9.816;2023-06-14T05:41:16;20.30;61.80
546;DHT22;259;53.304;9.816;2023-06-14T05:43:42;20.20;61.70
546;DHT22;259;53.304;9.816;2023-06-14T05:46:07;20.20;61.80
546;DHT22;259;53.304;9.816;2023-06-14T05:48:33;20.20;61.80
546;DHT22;259;53.304;9.816;2023-06-14T05:50:59;20.20;62.30
546;DHT22;259;53.304;9.816;2023-06-14T05:53:25;20.20;62.80
546;DHT22;259;53.304;9.816;2023-06-14T05:55:51;20.20;63.70
546;DHT22;259;53.304;9.816;2023-06-14T05:58:20;20.10;64.60
546;DHT22;259;53.304;9.816;2023-06-14T06:00:47;20.10;65.70
546;DHT22;259;53.304;9.816;2023-06-14T06:03:12;20.10;65.50
546;DHT22;259;53.304;9.816;2023-06-14T06:05:39;20.10;65.90
546;DHT22;259;53.304;9.816;2023-06-14T06:08:04;20.10;65.80
546;DHT22;259;53.304;9.816;2023-06-14T06:10:31;20.10;66.30
546;DHT22;259;53.304;9.816;2023-06-14T06:12:56;20.10;65.80
546;DHT22;259;53.304;9.816;2023-06-14T06:15:22;20.10;66.10
546;DHT22;259;53.304;9.816;2023-06-14T06:17:48;20.10;65.90
546;DHT22;259;53.304;9.816;2023-06-14T06:20:13;20.10;65.60
546;DHT22;259;53.304;9.816;2023-06-14T06:22:39;20.10;65.30
546;DHT22;259;53.304;9.816;2023-06-14T06:25:05;20.10;65.20
546;DHT22;259;53.304;9.816;2023-06-14T06:27:32;20.10;65.10
546;DHT22;259;53.304;9.816;2023-06-14T06:29:58;20.10;64.90
546;DHT22;259;53.304;9.816;2023-06-14T06:32:23;20.00;64.80
546;DHT22;259;53.304;9.816;2023-06-14T06:34:49;20.00;64.70
546;DHT22;259;53.304;9.816;2023-06-14T06:37:15;20.00;64.70
546;DHT22;259;53.304;9.816;2023-06-14T06:39:41;20.00;64.70
546;DHT22;259;53.304;9.816;2023-06-14T06:42:06;20.00;64.60
546;DHT22;259;53.304;9.816;2023-06-14T06:44:32;20.00;64.40
546;DHT22;259;53.304;9.816;2023-06-14T06:46:58;20.00;64.40
546;DHT22;259;53.304;9.816;2023-06-14T06:49:24;20.00;64.50
546;DHT22;259;53.304;9.816;2023-06-14T06:52:00;20.00;64.50
546;DHT22;259;53.304;9.816;2023-06-14T06:54:27;20.00;64.40
546;DHT22;259;53.304;9.816;2023-06-14T06:56:53;20.00;64.40
546;DHT22;259;53.304;9.816;2023-06-14T06:59:18;20.00;64.60
546;DHT22;259;53.304;9.816;2023-06-14T07:01:44;20.00;64.50
546;DHT22;259;53.304;9.816;2023-06-14T07:04:10;20.00;64.60
546;DHT22;259;53.304;9.816;2023-06-14T07:06:36;20.00;64.70
546;DHT22;259;53.304;9.816;2023-06-14T07:09:02;19.90;64.60
546;DHT22;259;53.304;9.816;2023-06-14T07:11:30;19.90;64.70
546;DHT22;259;53.304;9.816;2023-06-14T07:13:55;19.90;64.60
546;DHT22;259;53.304;9.816;2023-06-14T07:16:21;19.90;64.60
546;DHT22;259;53.304;9.816;2023-06-14T07:18:47;19.90;64.50
546;DHT22;259;53.304;9.816;2023-06-14T07:21:13;19.90;64.60
546;DHT22;259;53.304;9.816;2023-06-14T07:23:39;19.90;64.60
546;DHT22;259;53.304;9.816;2023-06-14T07:26:04;19.90;64.60
546;DHT22;259;53.304;9.816;2023-06-14T07:28:30;19.90;64.70
546;DHT22;259;53.304;9.816;2023-06-14T07:30:56;19.90;64.50
546;DHT22;259;53.304;9.816;2023-06-14T07:33:21;19.90;64.70
546;DHT22;259;53.304;9.816;2023-06-14T07:35:47;19.90;64.80
546;DHT22;259;53.304;9.816;2023-06-14T07:38:14;19.90;64.70
546;DHT22;259;53.304;9.816;2023-06-14T07:40:40;19.90;64.90
546;DHT22;259;53.304;9.816;2023-06-14T07:43:06;20.00;65.30
546;DHT22;259;53.304;9.816;2023-06-14T07:45:31;20.00;65.50
546;DHT22;259;53.304;9.816;2023-06-14T07:47:57;20.00;65.10
546;DHT22;259;53.304;9.816;2023-06-14T07:50:23;20.00;64.90
546;DHT22;259;53.304;9.816;2023-06-14T07:52:49;20.00;65.40
546;DHT22;259;53.304;9.816;2023-06-14T07:55:14;20.00;66.10
546;DHT22;259;53.304;9.816;2023-06-14T07:57:40;20.00;65.30
546;DHT22;259;53.304;9.816;2023-06-14T08:00:06;20.10;64.90
546;DHT22;259;53.304;9.816;2023-06-14T08:02:33;20.10;65.00
546;DHT22;259;53.304;9.816;2023-06-14T08:04:59;20.10;64.90
546;DHT22;259;53.304;9.816;2023-06-14T08:07:24;20.10;65.10
546;DHT22;259;53.304;9.816;2023-06-14T08:09:50;20.10;65.10
546;DHT22;259;53.304;9.816;2023-06-14T08:12:16;20.10;64.90
546;DHT22;259;53.304;9.816;2023-06-14T08:14:42;20.10;65.10
546;DHT22;259;53.304;9.816;2023-06-14T08:17:08;20.10;64.90
546;DHT22;259;53.304;9.816;2023-06-14T08:19:34;20.10;65.00
546;DHT22;259;53.304;9.816;2023-06-14T08:22:00;20.10;65.00
546;DHT22;259;53.304;9.816;2023-06-14T08:24:26;20.10;64.90
546;DHT22;259;53.304;9.816;2023-06-14T08:26:54;20.10;64.70
546;DHT22;259;53.304;9.816;2023-06-14T08:29:21;20.10;64.90
546;DHT22;259;53.304;9.816;2023-06-14T08:31:47;20.10;64.90
546;DHT22;259;53.304;9.816;2023-06-14T08:34:13;20.10;64.90
546;DHT22;259;53.304;9.816;2023-06-14T08:36:39;20.10;64.90
546;DHT22;259;53.304;9.816;2023-06-14T08:39:05;20.20;65.60
546;DHT22;259;53.304;9.816;2023-06-14T08:41:31;20.20;64.90
546;DHT22;259;53.304;9.816;2023-06-14T08:43:57;20.30;65.20
546;DHT22;259;53.304;9.816;2023-06-14T08:46:26;20.30;64.70
546;DHT22;259;53.304;9.816;2023-06-14T08:48:55;20.30;64.60
546;DHT22;259;53.304;9.816;2023-06-14T08:51:25;20.30;64.70
546;DHT22;259;53.304;9.816;2023-06-14T08:53:54;20.40;64.80
546;DHT22;259;53.304;9.816;2023-06-14T08:56:26;20.40;64.70
546;DHT22;259;53.304;9.816;2023-06-14T08:58:53;20.40;65.60
546;DHT22;259;53.304;9.816;2023-06-14T09:01:19;20.50;65.00
546;DHT22;259;53.304;9.816;2023-06-14T09:03:48;20.50;64.70
546;DHT22;259;53.304;9.816;2023-06-14T09:06:15;20.60;65.10
546;DHT22;259;53.304;9.816;2023-06-14T09:08:46;20.60;65.00
546;DHT22;259;53.304;9.816;2023-06-14T09:11:13;20.60;65.00
546;DHT22;259;53.304;9.816;2023-06-14T09:13:40;20.60;65.60
546;DHT22;259;53.304;9.816;2023-06-14T09:16:07;20.70;65.60
546;DHT22;259;53.304;9.816;2023-06-14T09:18:38;20.70;64.80
546;DHT22;259;53.304;9.816;2023-06-14T09:21:08;20.70;64.70
546;DHT22;259;53.304;9.816;2023-06-14T09:23:40;20.80;64.90
546;DHT22;259;53.304;9.816;2023-06-14T09:26:09;20.80;64.80
546;DHT22;259;53.304;9.816;2023-06-14T09:28:42;20.90;65.00
546;DHT22;259;53.304;9.816;2023-06-14T09:31:10;21.00;65.10
546;DHT22;259;53.304;9.816;2023-06-14T09:33:37;21.00;65.10
546;DHT22;259;53.304;9.816;2023-06-14T09:36:04;21.10;64.90
546;DHT22;259;53.304;9.816;2023-06-14T09:38:30;21.20;64.50
546;DHT22;259;53.304;9.816;2023-06-14T09:40:58;21.20;64.50
546;DHT22;259;53.304;9.816;2023-06-14T09:43:24;21.30;64.50
546;DHT22;259;53.304;9.816;2023-06-14T09:45:53;21.40;64.30
546;DHT22;259;53.304;9.816;2023-06-14T09:48:19;21.40;64.10
546;DHT22;259;53.304;9.816;2023-06-14T09:50:46;21.40;63.60
546;DHT22;259;53.304;9.816;2023-06-14T09:53:15;21.40;63.60
546;DHT22;259;53.304;9.816;2023-06-14T09:55:48;21.40;63.60
546;DHT22;259;53.304;9.816;2023-06-14T09:58:16;21.40;63.30
546;DHT22;259;53.304;9.816;2023-06-14T10:00:44;21.40;63.30
546;DHT22;259;53.304;9.816;2023-06-14T10:03:14;21.40;63.40
546;DHT22;259;53.304;9.816;2023-06-14T10:05:47;21.50;63.50
546;DHT22;259;53.304;9.816;2023-06-14T10:08:15;21.50;63.40
546;DHT22;259;53.304;9.816;2023-06-14T10:10:42;21.50;63.30
546;DHT22;259;53.304;9.816;2023-06-14T10:13:10;21.50;63.30
546;DHT22;259;53.304;9.816;2023-06-14T10:18:31;21.50;63.00
546;DHT22;259;53.304;9.816;2023-06-14T10:23:48;21.40;63.00
546;DHT22;259;53.304;9.816;2023-06-14T10:26:23;21.50;63.30
546;DHT22;259;53.304;9.816;2023-06-14T10:28:59;21.50;63.40
546;DHT22;259;53.304;9.816;2023-06-14T10:31:49;21.50;63.60
546;DHT22;259;53.304;9.816;2023-06-14T10:34:29;21.60;64.20
546;DHT22;259;53.304;9.816;2023-06-14T10:37:12;21.60;63.90
546;DHT22;259;53.304;9.816;2023-06-14T10:39:41;21.60;63.40
546;DHT22;259;53.304;9.816;2023-06-14T10:42:07;21.70;63.20
546;DHT22;259;53.304;9.816;2023-06-14T10:47:07;21.70;63.00
546;DHT22;259;53.304;9.816;2023-06-14T10:49:43;21.70;63.00
546;DHT22;259;53.304;9.816;2023-06-14T10:52:33;21.70;63.10
546;DHT22;259;53.304;9.816;2023-06-14T10:55:12;21.70;62.90
546;DHT22;259;53.304;9.816;2023-06-14T11:00:12;21.80;62.70
546;DHT22;259;53.304;9.816;2023-06-14T11:03:04;21.80;62.90
546;DHT22;259;53.304;9.816;2023-06-14T11:05:59;21.70;63.00
546;DHT22;259;53.304;9.816;2023-06-14T11:08:56;21.80;63.20
546;DHT22;259;53.304;9.816;2023-06-14T11:11:48;21.80;63.40
546;DHT22;259;53.304;9.816;2023-06-14T11:14:14;21.80;62.90
546;DHT22;259;53.304;9.816;2023-06-14T11:16:40;21.80;62.90
546;DHT22;259;53.304;9.816;2023-06-14T11:19:06;21.80;62.80
546;DHT22;259;53.304;9.816;2023-06-14T11:21:32;21.90;62.70
546;DHT22;259;53.304;9.816;2023-06-14T11:23:58;21.90;62.60
546;DHT22;259;53.304;9.816;2023-06-14T11:26:29;21.90;62.40
546;DHT22;259;53.304;9.816;2023-06-14T11:28:59;21.90;62.10
546;DHT22;259;53.304;9.816;2023-06-14T11:31:28;22.00;62.20
546;DHT22;259;53.304;9.816;2023-06-14T11:33:55;22.00;62.50
546;DHT22;259;53.304;9.816;2023-06-14T11:36:22;22.00;62.70
546;DHT22;259;53.304;9.816;2023-06-14T11:38:49;22.10;62.50
546;DHT22;259;53.304;9.816;2023-06-14T11:41:14;22.10;62.10
546;DHT22;259;53.304;9.816;2023-06-14T11:43:40;22.00;62.10
546;DHT22;259;53.304;9.816;2023-06-14T11:46:12;22.00;62.20
546;DHT22;259;53.304;9.816;2023-06-14T11:48:42;22.00;62.30
546;DHT22;259;53.304;9.816;2023-06-14T11:51:09;22.00;61.90
546;DHT22;259;53.304;9.816;2023-06-14T11:53:35;22.10;62.20
546;DHT22;259;53.304;9.816;2023-06-14T11:56:01;22.00;62.10
546;DHT22;259;53.304;9.816;2023-06-14T11:58:27;22.00;62.30
546;DHT22;259;53.304;9.816;2023-06-14T12:00:55;22.10;62.50
546;DHT22;259;53.304;9.816;2023-06-14T12:03:24;22.00;62.10
546;DHT22;259;53.304;9.816;2023-06-14T12:06:01;22.10;62.10
546;DHT22;259;53.304;9.816;2023-06-14T12:08:33;22.10;61.80
546;DHT22;259;53.304;9.816;2023-06-14T12:11:06;22.10;61.70
546;DHT22;259;53.304;9.816;2023-06-14T12:13:38;22.10;61.70
546;DHT22;259;53.304;9.816;2023-06-14T12:16:10;22.10;61.70
546;DHT22;259;53.304;9.816;2023-06-14T12:18:38;22.10;62.00
546;DHT22;259;53.304;9.816;2023-06-14T12:21:08;22.10;62.90
546;DHT22;259;53.304;9.816;2023-06-14T12:23:49;22.10;62.00
546;DHT22;259;53.304;9.816;2023-06-14T12:26:17;22.20;62.60
546;DHT22;259;53.304;9.816;2023-06-14T12:28:44;22.30;62.80
546;DHT22;259;53.304;9.816;2023-06-14T12:31:12;22.30;62.80
546;DHT22;259;53.304;9.816;2023-06-14T12:33:39;22.40;62.50
546;DHT22;259;53.304;9.816;2023-06-14T12:36:10;22.40;62.20
546;DHT22;259;53.304;9.816;2023-06-14T12:38:36;22.40;61.90
546;DHT22;259;53.304;9.816;2023-06-14T12:41:02;22.40;62.20
546;DHT22;259;53.304;9.816;2023-06-14T12:43:28;22.50;62.60
546;DHT22;259;53.304;9.816;2023-06-14T12:45:54;22.50;62.50
546;DHT22;259;53.304;9.816;2023-06-14T12:48:20;22.60;62.60
546;DHT22;259;53.304;9.816;2023-06-14T12:50:47;22.60;62.60
546;DHT22;259;53.304;9.816;2023-06-14T12:53:13;22.60;62.50
546;DHT22;259;53.304;9.816;2023-06-14T12:55:38;22.60;62.40
546;DHT22;259;53.304;9.816;2023-06-14T12:58:04;22.60;62.10
546;DHT22;259;53.304;9.816;2023-06-14T13:00:30;22.60;62.30
546;DHT22;259;53.304;9.816;2023-06-14T13:02:56;22.60;62.00
546;DHT22;259;53.304;9.816;2023-06-14T13:05:23;22.60;61.90
546;DHT22;259;53.304;9.816;2023-06-14T13:07:49;22.60;61.60
546;DHT22;259;53.304;9.816;2023-06-14T13:10:16;22.50;61.70
546;DHT22;259;53.304;9.816;2023-06-14T13:12:42;22.50;61.70
546;DHT22;259;53.304;9.816;2023-06-14T13:15:08;22.60;61.90
546;DHT22;259;53.304;9.816;2023-06-14T13:17:35;22.60;62.00
546;DHT22;259;53.304;9.816;2023-06-14T13:20:07;22.70;62.00
546;DHT22;259;53.304;9.816;2023-06-14T13:22:34;22.70;61.70
546;DHT22;259;53.304;9.816;2023-06-14T13:25:01;22.70;61.50
546;DHT22;259;53.304;9.816;2023-06-14T13:27:27;22.80;61.60
546;DHT22;259;53.304;9.816;2023-06-14T13:29:53;22.80;61.60
546;DHT22;259;53.304;9.816;2023-06-14T13:32:21;22.90;61.60
546;DHT22;259;53.304;9.816;2023-06-14T13:34:48;23.00;61.50
546;DHT22;259;53.304;9.816;2023-06-14T13:37:14;23.00;61.30
546;DHT22;259;53.304;9.816;2023-06-14T13:39:40;23.10;61.10
546;DHT22;259;53.304;9.816;2023-06-14T13:42:06;23.20;61.40
546;DHT22;259;53.304;9.816;2023-06-14T13:44:31;23.20;61.10
546;DHT22;259;53.304;9.816;2023-06-14T13:46:57;23.40;62.10
546;DHT22;259;53.304;9.816;2023-06-14T13:49:23;23.60;61.20
546;DHT22;259;53.304;9.816;2023-06-14T13:51:49;23.70;60.50
546;DHT22;259;53.304;9.816;2023-06-14T13:54:14;23.70;60.40
546;DHT22;259;53.304;9.816;2023-06-14T13:56:41;23.70;60.50
546;DHT22;259;53.304;9.816;2023-06-14T13:59:06;23.80;60.50
546;DHT22;259;53.304;9.816;2023-06-14T14:01:32;23.80;60.30
546;DHT22;259;53.304;9.816;2023-06-14T14:03:58;23.90;60.00
546;DHT22;259;53.304;9.816;2023-06-14T14:06:26;23.90;60.00
546;DHT22;259;53.304;9.816;2023-06-14T14:08:51;23.90;59.90
546;DHT22;259;53.304;9.816;2023-06-14T14:11:18;23.90;59.70
546;DHT22;259;53.304;9.816;2023-06-14T14:13:44;23.80;59.60
546;DHT22;259;53.304;9.816;2023-06-14T14:16:10;23.80;59.60
546;DHT22;259;53.304;9.816;2023-06-14T14:18:36;23.70;59.50
546;DHT22;259;53.304;9.816;2023-06-14T14:21:02;23.70;59.50
546;DHT22;259;53.304;9.816;2023-06-14T14:23:28;23.70;59.60
546;DHT22;259;53.304;9.816;2023-06-14T14:25:54;23.70;59.70
546;DHT22;259;53.304;9.816;2023-06-14T14:28:20;23.80;59.40
546;DHT22;259;53.304;9.816;2023-06-14T14:30:47;23.80;59.60
546;DHT22;259;53.304;9.816;2023-06-14T14:33:16;23.90;59.60
546;DHT22;259;53.304;9.816;2023-06-14T14:35:44;23.90;59.80
546;DHT22;259;53.304;9.816;2023-06-14T14:38:13;24.00;59.80
546;DHT22;259;53.304;9.816;2023-06-14T14:40:41;24.00;59.70
546;DHT22;259;53.304;9.816;2023-06-14T14:43:07;24.00;59.70
546;DHT22;259;53.304;9.816;2023-06-14T14:45:33;24.10;59.60
546;DHT22;259;53.304;9.816;2023-06-14T14:48:00;24.20;59.90
546;DHT22;259;53.304;9.816;2023-06-14T14:50:27;24.20;59.60
546;DHT22;259;53.304;9.816;2023-06-14T14:52:53;24.30;59.40
546;DHT22;259;53.304;9.816;2023-06-14T14:55:18;24.30;59.40
546;DHT22;259;53.304;9.816;2023-06-14T14:57:45;24.40;59.50
546;DHT22;259;53.304;9.816;2023-06-14T15:00:12;24.50;59.50
546;DHT22;259;53.304;9.816;2023-06-14T15:02:38;24.50;59.50
546;DHT22;259;53.304;9.816;2023-06-14T15:05:04;24.60;59.70
546;DHT22;259;53.304;9.816;2023-06-14T15:07:31;24.60;59.60
546;DHT22;259;53.304;9.816;2023-06-14T15:09:57;24.60;59.60
546;DHT22;259;53.304;9.816;2023-06-14T15:12:23;24.70;59.80
546;DHT22;259;53.304;9.816;2023-06-14T15:14:52;24.80;59.70
546;DHT22;259;53.304;9.816;2023-06-14T15:17:21;24.80;59.60
546;DHT22;259;53.304;9.816;2023-06-14T15:19:48;24.80;59.40
546;DHT22;259;53.304;9.816;2023-06-14T15:22:14;24.80;59.50
546;DHT22;259;53.304;9.816;2023-06-14T15:24:41;24.90;59.20
546;DHT22;259;53.304;9.816;2023-06-14T15:27:07;24.90;59.60
546;DHT22;259;53.304;9.816;2023-06-14T15:29:34;24.90;59.50
546;DHT22;259;53.304;9.816;2023-06-14T15:32:03;24.90;59.30
546;DHT22;259;53.304;9.816;2023-06-14T15:34:30;24.90;59.40
546;DHT22;259;53.304;9.816;2023-06-14T15:36:56;25.00;59.50
546;DHT22;259;53.304;9.816;2023-06-14T15:39:22;24.90;59.50
546;DHT22;259;53.304;9.816;2023-06-14T15:41:49;24.90;59.60
546;DHT22;259;53.304;9.816;2023-06-14T15:44:17;24.90;59.60
546;DHT22;259;53.304;9.816;2023-06-14T15:46:42;24.80;59.60
546;DHT22;259;53.304;9.816;2023-06-14T15:49:12;24.80;59.70
546;DHT22;259;53.304;9.816;2023-06-14T15:51:39;24.80;60.10
546;DHT22;259;53.304;9.816;2023-06-14T15:54:06;24.80;60.70
546;DHT22;259;53.304;9.816;2023-06-14T15:56:32;24.80;60.50
546;DHT22;259;53.304;9.816;2023-06-14T15:58:59;24.80;61.50
546;DHT22;259;53.304;9.816;2023-06-14T16:01:26;24.80;61.20
546;DHT22;259;53.304;9.816;2023-06-14T16:03:52;24.80;60.50
546;DHT22;259;53.304;9.816;2023-06-14T16:06:18;24.80;60.40
546;DHT22;259;53.304;9.816;2023-06-14T16:08:44;24.80;60.50
546;DHT22;259;53.304;9.816;2023-06-14T16:11:10;24.90;61.30
546;DHT22;259;53.304;9.816;2023-06-14T16:13:36;24.90;61.20
546;DHT22;259;53.304;9.816;2023-06-14T16:16:02;24.90;61.50
546;DHT22;259;53.304;9.816;2023-06-14T16:18:28;25.00;61.80
546;DHT22;259;53.304;9.816;2023-06-14T16:20:54;25.00;61.80
546;DHT22;259;53.304;9.816;2023-06-14T16:23:21;25.00;62.60
546;DHT22;259;53.304;9.816;2023-06-14T16:25:47;25.00;62.80
546;DHT22;259;53.304;9.816;2023-06-14T16:28:13;25.00;62.30
546;DHT22;259;53.304;9.816;2023-06-14T16:30:39;25.00;63.20
546;DHT22;259;53.304;9.816;2023-06-14T16:33:05;25.00;62.80
546;DHT22;259;53.304;9.816;2023-06-14T16:35:31;25.00;62.10
546;DHT22;259;53.304;9.816;2023-06-14T16:37:57;25.00;62.50
546;DHT22;259;53.304;9.816;2023-06-14T16:40:23;25.00;61.10
546;DHT22;259;53.304;9.816;2023-06-14T16:42:49;25.00;60.80
546;DHT22;259;53.304;9.816;2023-06-14T16:45:15;25.00;61.10